sensor_id;sensor_type;location;lat;lon;timestamp;P1;durP1;ratioP1;P2;durP2;ratioP2
22778;SDS011;11556;51.194;3.800;2023-08-17T00:00:09;8.82;;;4.47;;
22778;SDS011;11556;51.194;3.800;2023-08-17T00:02:38;4.80;;;4.05;;
22778;SDS011;11556;51.194;3.800;2023-08-17T00:05:05;7.60;;;4.05;;
22778;SDS011;11556;51.194;3.800;2023-08-17T00:07:34;8.88;;;4.50;;
22778;SDS011;11556;51.194;3.800;2023-08-17T00:10:00;5.85;;;3.88;;
22778;SDS011;11556;51.194;3.800;2023-08-17T00:12:26;6.15;;;3.80;;
22778;SDS011;11556;51.194;3.800;2023-08-17T00:14:52;6.82;;;4.00;;
22778;SDS011;11556;51.194;3.800;2023-08-17T00:17:18;10.05;;;4.05;;
22778;SDS011;11556;51.194;3.800;2023-08-17T00:19:44;7.63;;;4.70;;
22778;SDS011;11556;51.194;3.800;2023-08-17T00:22:11;5.40;;;3.88;;
22778;SDS011;11556;51.194;3.800;2023-08-17T00:24:36;8.80;;;4.22;;
22778;SDS011;11556;51.194;3.800;2023-08-17T00:27:02;10.27;;;4.20;;
22778;SDS011;11556;51.194;3.800;2023-08-17T00:29:29;8.55;;;4.10;;
22778;SDS011;11556;51.194;3.800;2023-08-17T00:31:55;4.60;;;3.42;;
22778;SDS011;11556;51.194;3.800;2023-08-17T00:34:20;7.45;;;4.10;;
22778;SDS011;11556;51.194;3.800;2023-08-17T00:36:46;11.93;;;4.10;;
22778;SDS011;11556;51.194;3.800;2023-08-17T00:39:12;7.20;;;3.80;;
22778;SDS011;11556;51.194;3.800;2023-08-17T00:41:37;9.55;;;4.10;;
22778;SDS011;11556;51.194;3.800;2023-08-17T00:44:03;6.70;;;4.43;;
22778;SDS011;11556;51.194;3.800;2023-08-17T00:46:29;4.75;;;4.13;;
22778;SDS011;11556;51.194;3.800;2023-08-17T00:48:55;5.50;;;3.85;;
22778;SDS011;11556;51.194;3.800;2023-08-17T00:51:22;8.02;;;4.07;;
22778;SDS011;11556;51.194;3.800;2023-08-17T00:53:52;9.10;;;3.78;;
22778;SDS011;11556;51.194;3.800;2023-08-17T00:56:21;8.02;;;4.30;;
22778;SDS011;11556;51.194;3.800;2023-08-17T00:58:46;6.93;;;3.88;;
22778;SDS011;11556;51.194;3.800;2023-08-17T01:01:14;7.20;;;3.95;;
22778;SDS011;11556;51.194;3.800;2023-08-17T01:03:40;6.90;;;4.05;;
22778;SDS011;11556;51.194;3.800;2023-08-17T01:06:06;5.57;;;3.67;;
22778;SDS011;11556;51.194;3.800;2023-08-17T01:08:32;6.28;;;4.13;;
22778;SDS011;11556;51.194;3.800;2023-08-17T01:13:55;8.40;;;4.00;;
22778;SDS011;11556;51.194;3.800;2023-08-17T01:16:30;7.85;;;3.55;;
22778;SDS011;11556;51.194;3.800;2023-08-17T01:19:24;7.00;;;3.58;;
22778;SDS011;11556;51.194;3.800;2023-08-17T01:21:53;7.57;;;3.30;;
22778;SDS011;11556;51.194;3.800;2023-08-17T01:24:25;5.47;;;3.38;;
22778;SDS011;11556;51.194;3.800;2023-08-17T01:26:51;7.80;;;3.60;;
22778;SDS011;11556;51.194;3.800;2023-08-17T01:29:17;7.63;;;3.15;;
22778;SDS011;11556;51.194;3.800;2023-08-17T01:31:54;6.00;;;3.22;;
22778;SDS011;11556;51.194;3.800;2023-08-17T01:34:23;9.38;;;3.58;;
22778;SDS011;11556;51.194;3.800;2023-08-17T01:36:54;4.90;;;3.25;;
22778;SDS011;11556;51.194;3.800;2023-08-17T01:39:24;5.13;;;3.05;;
22778;SDS011;11556;51.194;3.800;2023-08-17T01:41:55;3.97;;;3.22;;
22778;SDS011;11556;51.194;3.800;2023-08-17T01:44:23;6.45;;;3.20;;
22778;SDS011;11556;51.194;3.800;2023-08-17T01:46:51;7.40;;;3.25;;
22778;SDS011;11556;51.194;3.800;2023-08-17T01:49:16;4.93;;;2.95;;
22778;SDS011;11556;51.194;3.800;2023-08-17T01:51:42;3.53;;;2.83;;
22778;SDS011;11556;51.194;3.800;2023-08-17T01:54:08;5.40;;;2.83;;
22778;SDS011;11556;51.194;3.800;2023-08-17T01:56:33;4.65;;;3.17;;
22778;SDS011;11556;51.194;3.800;2023-08-17T01:58:59;5.28;;;2.85;;
22778;SDS011;11556;51.194;3.800;2023-08-17T02:01:25;6.60;;;2.97;;
22778;SDS011;11556;51.194;3.800;2023-08-17T02:03:51;7.65;;;3.00;;
22778;SDS011;11556;51.194;3.800;2023-08-17T02:06:16;5.40;;;2.83;;
22778;SDS011;11556;51.194;3.800;2023-08-17T02:08:42;3.55;;;2.45;;
22778;SDS011;11556;51.194;3.800;2023-08-17T02:11:09;5.78;;;3.30;;
22778;SDS011;11556;51.194;3.800;2023-08-17T02:13:35;6.13;;;3.13;;
22778;SDS011;11556;51.194;3.800;2023-08-17T02:16:02;6.35;;;2.80;;
22778;SDS011;11556;51.194;3.800;2023-08-17T02:18:31;3.45;;;2.80;;
22778;SDS011;11556;51.194;3.800;2023-08-17T02:20:58;6.65;;;2.92;;
22778;SDS011;11556;51.194;3.800;2023-08-17T02:23:24;6.85;;;3.10;;
22778;SDS011;11556;51.194;3.800;2023-08-17T02:25:50;5.72;;;3.00;;
22778;SDS011;11556;51.194;3.800;2023-08-17T02:28:15;7.50;;;3.10;;
22778;SDS011;11556;51.194;3.800;2023-08-17T02:30:41;7.25;;;3.03;;
22778;SDS011;11556;51.194;3.800;2023-08-17T02:33:08;7.32;;;3.10;;
22778;SDS011;11556;51.194;3.800;2023-08-17T02:35:34;5.35;;;3.10;;
22778;SDS011;11556;51.194;3.800;2023-08-17T02:38:00;6.82;;;3.10;;
22778;SDS011;11556;51.194;3.800;2023-08-17T02:40:25;6.28;;;2.92;;
22778;SDS011;11556;51.194;3.800;2023-08-17T02:42:51;6.28;;;2.70;;
22778;SDS011;11556;51.194;3.800;2023-08-17T02:45:17;4.32;;;3.33;;
22778;SDS011;11556;51.194;3.800;2023-08-17T02:47:42;6.25;;;3.08;;
22778;SDS011;11556;51.194;3.800;2023-08-17T02:50:08;5.50;;;3.17;;
22778;SDS011;11556;51.194;3.800;2023-08-17T02:52:35;9.27;;;3.90;;
22778;SDS011;11556;51.194;3.800;2023-08-17T02:55:00;3.97;;;3.00;;
22778;SDS011;11556;51.194;3.800;2023-08-17T02:57:26;3.97;;;2.85;;
22778;SDS011;11556;51.194;3.800;2023-08-17T02:59:51;4.13;;;2.85;;
22778;SDS011;11556;51.194;3.800;2023-08-17T03:02:17;6.35;;;3.10;;
22778;SDS011;11556;51.194;3.800;2023-08-17T03:04:43;9.05;;;3.30;;
22778;SDS011;11556;51.194;3.800;2023-08-17T03:07:08;5.05;;;2.88;;
22778;SDS011;11556;51.194;3.800;2023-08-17T03:09:34;9.13;;;3.10;;
22778;SDS011;11556;51.194;3.800;2023-08-17T03:12:00;3.97;;;2.80;;
22778;SDS011;11556;51.194;3.800;2023-08-17T03:14:25;6.15;;;3.50;;
22778;SDS011;11556;51.194;3.800;2023-08-17T03:16:51;6.50;;;3.17;;
22778;SDS011;11556;51.194;3.800;2023-08-17T03:19:17;6.45;;;3.22;;
22778;SDS011;11556;51.194;3.800;2023-08-17T03:21:43;8.75;;;3.25;;
22778;SDS011;11556;51.194;3.800;2023-08-17T03:24:08;5.82;;;2.90;;
22778;SDS011;11556;51.194;3.800;2023-08-17T03:26:34;7.30;;;4.03;;
22778;SDS011;11556;51.194;3.800;2023-08-17T03:29:00;5.47;;;3.28;;
22778;SDS011;11556;51.194;3.800;2023-08-17T03:31:25;6.40;;;3.20;;
22778;SDS011;11556;51.194;3.800;2023-08-17T03:33:51;5.75;;;3.00;;
22778;SDS011;11556;51.194;3.800;2023-08-17T03:36:16;5.30;;;3.63;;
22778;SDS011;11556;51.194;3.800;2023-08-17T03:38:42;5.15;;;3.03;;
22778;SDS011;11556;51.194;3.800;2023-08-17T03:41:09;5.38;;;3.25;;
22778;SDS011;11556;51.194;3.800;2023-08-17T03:43:35;7.72;;;3.42;;
22778;SDS011;11556;51.194;3.800;2023-08-17T03:46:01;8.00;;;3.28;;
22778;SDS011;11556;51.194;3.800;2023-08-17T03:48:29;5.03;;;3.10;;
22778;SDS011;11556;51.194;3.800;2023-08-17T03:50:54;6.63;;;3.85;;
22778;SDS011;11556;51.194;3.800;2023-08-17T03:53:20;5.75;;;3.10;;
22778;SDS011;11556;51.194;3.800;2023-08-17T03:55:49;9.00;;;3.50;;
22778;SDS011;11556;51.194;3.800;2023-08-17T03:58:16;5.70;;;3.70;;
22778;SDS011;11556;51.194;3.800;2023-08-17T04:00:48;5.00;;;3.60;;
22778;SDS011;11556;51.194;3.800;2023-08-17T04:03:17;5.28;;;3.28;;
22778;SDS011;11556;51.194;3.800;2023-08-17T04:05:42;4.38;;;3.10;;
22778;SDS011;11556;51.194;3.800;2023-08-17T04:08:08;4.15;;;3.33;;
22778;SDS011;11556;51.194;3.800;2023-08-17T04:10:34;7.28;;;3.35;;
22778;SDS011;11556;51.194;3.800;2023-08-17T04:13:00;7.05;;;3.88;;
22778;SDS011;11556;51.194;3.800;2023-08-17T04:15:25;26.00;;;22.65;;
22778;SDS011;11556;51.194;3.800;2023-08-17T04:17:51;8.98;;;7.85;;
22778;SDS011;11556;51.194;3.800;2023-08-17T04:20:17;7.25;;;3.92;;
22778;SDS011;11556;51.194;3.800;2023-08-17T04:22:46;6.25;;;3.85;;
22778;SDS011;11556;51.194;3.800;2023-08-17T04:25:12;5.95;;;3.47;;
22778;SDS011;11556;51.194;3.800;2023-08-17T04:27:38;6.40;;;3.78;;
22778;SDS011;11556;51.194;3.800;2023-08-17T04:30:05;6.22;;;3.83;;
22778;SDS011;11556;51.194;3.800;2023-08-17T04:32:31;8.20;;;4.10;;
22778;SDS011;11556;51.194;3.800;2023-08-17T04:34:56;4.65;;;3.85;;
22778;SDS011;11556;51.194;3.800;2023-08-17T04:37:22;7.13;;;3.92;;
22778;SDS011;11556;51.194;3.800;2023-08-17T04:39:48;7.38;;;4.00;;
22778;SDS011;11556;51.194;3.800;2023-08-17T04:42:14;6.05;;;4.07;;
22778;SDS011;11556;51.194;3.800;2023-08-17T04:44:40;8.05;;;4.13;;
22778;SDS011;11556;51.194;3.800;2023-08-17T04:47:05;7.78;;;4.03;;
22778;SDS011;11556;51.194;3.800;2023-08-17T04:49:31;8.05;;;3.90;;
22778;SDS011;11556;51.194;3.800;2023-08-17T04:51:56;6.93;;;3.95;;
22778;SDS011;11556;51.194;3.800;2023-08-17T04:54:22;10.25;;;4.22;;
22778;SDS011;11556;51.194;3.800;2023-08-17T04:56:48;4.90;;;3.90;;
22778;SDS011;11556;51.194;3.800;2023-08-17T04:59:13;7.10;;;4.10;;
22778;SDS011;11556;51.194;3.800;2023-08-17T05:01:39;7.97;;;3.92;;
22778;SDS011;11556;51.194;3.800;2023-08-17T05:04:05;9.25;;;4.22;;
22778;SDS011;11556;51.194;3.800;2023-08-17T05:06:31;5.82;;;3.83;;
22778;SDS011;11556;51.194;3.800;2023-08-17T05:08:57;6.90;;;4.10;;
22778;SDS011;11556;51.194;3.800;2023-08-17T05:11:23;6.57;;;3.80;;
22778;SDS011;11556;51.194;3.800;2023-08-17T05:13:49;5.43;;;4.20;;
22778;SDS011;11556;51.194;3.800;2023-08-17T05:16:14;3.78;;;3.17;;
22778;SDS011;11556;51.194;3.800;2023-08-17T05:18:40;4.68;;;3.60;;
22778;SDS011;11556;51.194;3.800;2023-08-17T05:21:06;9.20;;;3.83;;
22778;SDS011;11556;51.194;3.800;2023-08-17T05:23:32;6.65;;;3.70;;
22778;SDS011;11556;51.194;3.800;2023-08-17T05:25:57;8.85;;;3.58;;
22778;SDS011;11556;51.194;3.800;2023-08-17T05:28:24;4.25;;;3.13;;
22778;SDS011;11556;51.194;3.800;2023-08-17T05:30:50;9.35;;;3.15;;
22778;SDS011;11556;51.194;3.800;2023-08-17T05:33:16;7.57;;;2.90;;
22778;SDS011;11556;51.194;3.800;2023-08-17T05:35:41;6.60;;;2.55;;
22778;SDS011;11556;51.194;3.800;2023-08-17T05:38:07;8.27;;;2.58;;
22778;SDS011;11556;51.194;3.800;2023-08-17T05:40:35;6.00;;;2.70;;
22778;SDS011;11556;51.194;3.800;2023-08-17T05:43:00;4.43;;;2.30;;
22778;SDS011;11556;51.194;3.800;2023-08-17T05:45:26;4.32;;;2.47;;
22778;SDS011;11556;51.194;3.800;2023-08-17T05:47:52;5.03;;;2.08;;
22778;SDS011;11556;51.194;3.800;2023-08-17T05:50:17;6.72;;;2.30;;
22778;SDS011;11556;51.194;3.800;2023-08-17T05:52:43;4.90;;;2.25;;
22778;SDS011;11556;51.194;3.800;2023-08-17T05:55:09;4.43;;;2.03;;
22778;SDS011;11556;51.194;3.800;2023-08-17T05:57:35;3.80;;;1.77;;
22778;SDS011;11556;51.194;3.800;2023-08-17T06:00:00;5.78;;;2.17;;
22778;SDS011;11556;51.194;3.800;2023-08-17T06:02:26;3.28;;;1.77;;
22778;SDS011;11556;51.194;3.800;2023-08-17T06:04:52;2.95;;;1.90;;
22778;SDS011;11556;51.194;3.800;2023-08-17T06:07:17;2.88;;;1.65;;
22778;SDS011;11556;51.194;3.800;2023-08-17T06:09:43;3.30;;;2.05;;
22778;SDS011;11556;51.194;3.800;2023-08-17T06:12:09;2.78;;;1.67;;
22778;SDS011;11556;51.194;3.800;2023-08-17T06:14:34;3.65;;;1.67;;
22778;SDS011;11556;51.194;3.800;2023-08-17T06:17:00;3.85;;;1.80;;
22778;SDS011;11556;51.194;3.800;2023-08-17T06:19:26;6.95;;;1.80;;
22778;SDS011;11556;51.194;3.800;2023-08-17T06:21:51;4.38;;;1.65;;
22778;SDS011;11556;51.194;3.800;2023-08-17T06:24:17;5.15;;;2.00;;
22778;SDS011;11556;51.194;3.800;2023-08-17T06:26:43;2.40;;;1.73;;
22778;SDS011;11556;51.194;3.800;2023-08-17T06:29:10;3.00;;;1.55;;
22778;SDS011;11556;51.194;3.800;2023-08-17T06:31:36;2.25;;;1.38;;
22778;SDS011;11556;51.194;3.800;2023-08-17T06:34:02;5.07;;;1.60;;
22778;SDS011;11556;51.194;3.800;2023-08-17T06:36:30;3.47;;;1.30;;
22778;SDS011;11556;51.194;3.800;2023-08-17T06:38:57;3.03;;;1.48;;
22778;SDS011;11556;51.194;3.800;2023-08-17T06:41:23;2.38;;;1.50;;
22778;SDS011;11556;51.194;3.800;2023-08-17T06:43:50;2.80;;;1.50;;
22778;SDS011;11556;51.194;3.800;2023-08-17T06:46:15;2.90;;;1.70;;
22778;SDS011;11556;51.194;3.800;2023-08-17T06:48:42;4.22;;;1.75;;
22778;SDS011;11556;51.194;3.800;2023-08-17T06:51:08;1.90;;;1.40;;
22778;SDS011;11556;51.194;3.800;2023-08-17T06:53:34;3.75;;;1.50;;
22778;SDS011;11556;51.194;3.800;2023-08-17T06:55:59;2.67;;;1.70;;
22778;SDS011;11556;51.194;3.800;2023-08-17T06:58:25;4.30;;;1.73;;
22778;SDS011;11556;51.194;3.800;2023-08-17T07:00:51;2.55;;;1.70;;
22778;SDS011;11556;51.194;3.800;2023-08-17T07:03:17;3.90;;;1.70;;
22778;SDS011;11556;51.194;3.800;2023-08-17T07:05:42;2.47;;;1.45;;
22778;SDS011;11556;51.194;3.800;2023-08-17T07:08:08;5.38;;;1.80;;
22778;SDS011;11556;51.194;3.800;2023-08-17T07:10:34;3.42;;;1.70;;
22778;SDS011;11556;51.194;3.800;2023-08-17T07:13:00;3.42;;;1.65;;
22778;SDS011;11556;51.194;3.800;2023-08-17T07:15:28;2.05;;;1.40;;
22778;SDS011;11556;51.194;3.800;2023-08-17T07:17:55;3.50;;;1.65;;
22778;SDS011;11556;51.194;3.800;2023-08-17T07:20:20;11.13;;;2.65;;
22778;SDS011;11556;51.194;3.800;2023-08-17T07:22:46;2.22;;;1.65;;
22778;SDS011;11556;51.194;3.800;2023-08-17T07:25:12;11.48;;;1.80;;
22778;SDS011;11556;51.194;3.800;2023-08-17T07:27:38;4.50;;;2.17;;
22778;SDS011;11556;51.194;3.800;2023-08-17T07:30:04;5.63;;;1.95;;
22778;SDS011;11556;51.194;3.800;2023-08-17T07:32:30;5.80;;;2.00;;
22778;SDS011;11556;51.194;3.800;2023-08-17T07:34:56;7.32;;;2.25;;
22778;SDS011;11556;51.194;3.800;2023-08-17T07:37:21;2.97;;;1.73;;
22778;SDS011;11556;51.194;3.800;2023-08-17T07:39:47;3.03;;;1.85;;
22778;SDS011;11556;51.194;3.800;2023-08-17T07:42:13;5.45;;;1.92;;
22778;SDS011;11556;51.194;3.800;2023-08-17T07:44:38;7.57;;;1.90;;
22778;SDS011;11556;51.194;3.800;2023-08-17T07:47:05;4.78;;;2.20;;
22778;SDS011;11556;51.194;3.800;2023-08-17T07:49:31;6.18;;;2.20;;
22778;SDS011;11556;51.194;3.800;2023-08-17T07:51:56;3.17;;;2.25;;
22778;SDS011;11556;51.194;3.800;2023-08-17T07:54:22;5.03;;;2.60;;
22778;SDS011;11556;51.194;3.800;2023-08-17T07:56:48;3.30;;;2.40;;
22778;SDS011;11556;51.194;3.800;2023-08-17T07:59:13;4.35;;;2.30;;
22778;SDS011;11556;51.194;3.800;2023-08-17T08:01:39;6.20;;;2.70;;
22778;SDS011;11556;51.194;3.800;2023-08-17T08:04:05;5.22;;;3.28;;
22778;SDS011;11556;51.194;3.800;2023-08-17T08:06:31;5.82;;;2.60;;
22778;SDS011;11556;51.194;3.800;2023-08-17T08:08:57;5.93;;;2.70;;
22778;SDS011;11556;51.194;3.800;2023-08-17T08:11:23;4.65;;;2.30;;
22778;SDS011;11556;51.194;3.800;2023-08-17T08:13:49;5.07;;;3.05;;
22778;SDS011;11556;51.194;3.800;2023-08-17T08:16:14;4.78;;;2.50;;
22778;SDS011;11556;51.194;3.800;2023-08-17T08:18:40;5.68;;;2.70;;
22778;SDS011;11556;51.194;3.800;2023-08-17T08:21:05;4.70;;;3.00;;
22778;SDS011;11556;51.194;3.800;2023-08-17T08:23:31;6.18;;;2.80;;
22778;SDS011;11556;51.194;3.800;2023-08-17T08:25:57;6.22;;;2.70;;
22778;SDS011;11556;51.194;3.800;2023-08-17T08:28:23;4.60;;;2.97;;
22778;SDS011;11556;51.194;3.800;2023-08-17T08:30:50;5.13;;;2.97;;
22778;SDS011;11556;51.194;3.800;2023-08-17T08:33:15;5.85;;;3.03;;
22778;SDS011;11556;51.194;3.800;2023-08-17T08:35:41;4.90;;;2.90;;
22778;SDS011;11556;51.194;3.800;2023-08-17T08:38:07;6.80;;;3.00;;
22778;SDS011;11556;51.194;3.800;2023-08-17T08:40:32;7.35;;;2.97;;
22778;SDS011;11556;51.194;3.800;2023-08-17T08:43:02;4.40;;;2.75;;
22778;SDS011;11556;51.194;3.800;2023-08-17T08:45:27;5.60;;;2.70;;
22778;SDS011;11556;51.194;3.800;2023-08-17T08:47:55;5.60;;;2.70;;
22778;SDS011;11556;51.194;3.800;2023-08-17T08:50:22;6.20;;;2.70;;
22778;SDS011;11556;51.194;3.800;2023-08-17T08:55:21;4.32;;;2.70;;
22778;SDS011;11556;51.194;3.800;2023-08-17T08:57:51;4.55;;;3.00;;
22778;SDS011;11556;51.194;3.800;2023-08-17T09:00:19;9.05;;;3.33;;
22778;SDS011;11556;51.194;3.800;2023-08-17T09:02:45;4.60;;;2.80;;
22778;SDS011;11556;51.194;3.800;2023-08-17T09:05:11;5.40;;;2.92;;
22778;SDS011;11556;51.194;3.800;2023-08-17T09:07:38;6.97;;;2.72;;
22778;SDS011;11556;51.194;3.800;2023-08-17T09:10:05;5.15;;;2.40;;
22778;SDS011;11556;51.194;3.800;2023-08-17T09:12:31;5.82;;;2.80;;
22778;SDS011;11556;51.194;3.800;2023-08-17T09:14:57;5.70;;;2.50;;
22778;SDS011;11556;51.194;3.800;2023-08-17T09:17:23;2.92;;;2.45;;
22778;SDS011;11556;51.194;3.800;2023-08-17T09:19:49;6.63;;;3.15;;
22778;SDS011;11556;51.194;3.800;2023-08-17T09:22:25;6.70;;;2.67;;
22778;SDS011;11556;51.194;3.800;2023-08-17T09:25:02;3.30;;;2.40;;
22778;SDS011;11556;51.194;3.800;2023-08-17T09:27:28;4.30;;;3.03;;
22778;SDS011;11556;51.194;3.800;2023-08-17T09:30:00;4.10;;;2.70;;
22778;SDS011;11556;51.194;3.800;2023-08-17T09:32:30;5.53;;;2.80;;
22778;SDS011;11556;51.194;3.800;2023-08-17T09:34:57;6.45;;;2.80;;
22778;SDS011;11556;51.194;3.800;2023-08-17T09:37:26;4.25;;;2.88;;
22778;SDS011;11556;51.194;3.800;2023-08-17T09:39:53;5.53;;;2.88;;
22778;SDS011;11556;51.194;3.800;2023-08-17T09:42:19;4.03;;;2.95;;
22778;SDS011;11556;51.194;3.800;2023-08-17T09:44:47;7.20;;;3.20;;
22778;SDS011;11556;51.194;3.800;2023-08-17T09:47:16;4.85;;;2.72;;
22778;SDS011;11556;51.194;3.800;2023-08-17T09:49:52;6.22;;;3.30;;
22778;SDS011;11556;51.194;3.800;2023-08-17T09:52:21;9.52;;;3.38;;
22778;SDS011;11556;51.194;3.800;2023-08-17T09:54:48;5.60;;;3.42;;
22778;SDS011;11556;51.194;3.800;2023-08-17T09:57:15;6.05;;;3.33;;
22778;SDS011;11556;51.194;3.800;2023-08-17T09:59:41;4.78;;;3.40;;
22778;SDS011;11556;51.194;3.800;2023-08-17T10:02:10;6.45;;;3.70;;
22778;SDS011;11556;51.194;3.800;2023-08-17T10:04:49;7.40;;;3.90;;
22778;SDS011;11556;51.194;3.800;2023-08-17T10:07:20;5.78;;;3.65;;
22778;SDS011;11556;51.194;3.800;2023-08-17T10:09:49;8.23;;;3.90;;
22778;SDS011;11556;51.194;3.800;2023-08-17T10:12:26;3.90;;;3.33;;
22778;SDS011;11556;51.194;3.800;2023-08-17T10:14:55;6.15;;;3.72;;
22778;SDS011;11556;51.194;3.800;2023-08-17T10:17:27;9.95;;;4.50;;
22778;SDS011;11556;51.194;3.800;2023-08-17T10:19:59;6.45;;;4.35;;
22778;SDS011;11556;51.194;3.800;2023-08-17T10:25:01;5.03;;;3.80;;
22778;SDS011;11556;51.194;3.800;2023-08-17T10:27:28;7.63;;;3.58;;
22778;SDS011;11556;51.194;3.800;2023-08-17T10:29:55;8.13;;;4.15;;
22778;SDS011;11556;51.194;3.800;2023-08-17T10:32:21;10.10;;;4.88;;
22778;SDS011;11556;51.194;3.800;2023-08-17T10:34:48;6.03;;;4.25;;
22778;SDS011;11556;51.194;3.800;2023-08-17T10:37:16;6.35;;;3.80;;
22778;SDS011;11556;51.194;3.800;2023-08-17T10:39:47;7.47;;;3.63;;
22778;SDS011;11556;51.194;3.800;2023-08-17T10:42:14;6.13;;;4.20;;
22778;SDS011;11556;51.194;3.800;2023-08-17T10:44:46;6.28;;;3.88;;
22778;SDS011;11556;51.194;3.800;2023-08-17T10:47:19;6.35;;;3.78;;
22778;SDS011;11556;51.194;3.800;2023-08-17T10:52:25;4.90;;;3.88;;
22778;SDS011;11556;51.194;3.800;2023-08-17T10:54:52;7.20;;;4.18;;
22778;SDS011;11556;51.194;3.800;2023-08-17T10:57:32;4.88;;;3.55;;
22778;SDS011;11556;51.194;3.800;2023-08-17T11:02:53;4.78;;;3.95;;
22778;SDS011;11556;51.194;3.800;2023-08-17T11:13:38;5.28;;;3.67;;
22778;SDS011;11556;51.194;3.800;2023-08-17T11:16:05;8.88;;;3.28;;
22778;SDS011;11556;51.194;3.800;2023-08-17T11:18:32;5.20;;;3.38;;
22778;SDS011;11556;51.194;3.800;2023-08-17T11:20:59;6.90;;;3.97;;
22778;SDS011;11556;51.194;3.800;2023-08-17T11:23:28;5.38;;;4.03;;
22778;SDS011;11556;51.194;3.800;2023-08-17T11:25:55;6.32;;;3.78;;
22778;SDS011;11556;51.194;3.800;2023-08-17T11:28:22;5.85;;;4.18;;
22778;SDS011;11556;51.194;3.800;2023-08-17T11:31:01;6.50;;;4.50;;
22778;SDS011;11556;51.194;3.800;2023-08-17T11:33:28;10.32;;;4.72;;
22778;SDS011;11556;51.194;3.800;2023-08-17T11:35:58;5.25;;;4.13;;
22778;SDS011;11556;51.194;3.800;2023-08-17T11:38:29;7.45;;;3.88;;
22778;SDS011;11556;51.194;3.800;2023-08-17T11:40:57;7.35;;;4.43;;
22778;SDS011;11556;51.194;3.800;2023-08-17T11:43:23;7.05;;;4.30;;
22778;SDS011;11556;51.194;3.800;2023-08-17T11:45:50;8.98;;;4.60;;
22778;SDS011;11556;51.194;3.800;2023-08-17T11:48:18;6.32;;;4.65;;
22778;SDS011;11556;51.194;3.800;2023-08-17T11:50:44;7.65;;;4.53;;
22778;SDS011;11556;51.194;3.800;2023-08-17T11:53:10;6.28;;;5.15;;
22778;SDS011;11556;51.194;3.800;2023-08-17T11:55:36;8.20;;;4.97;;
22778;SDS011;11556;51.194;3.800;2023-08-17T11:58:02;7.22;;;5.50;;
22778;SDS011;11556;51.194;3.800;2023-08-17T12:00:34;10.60;;;5.32;;
22778;SDS011;11556;51.194;3.800;2023-08-17T12:03:01;8.52;;;5.63;;
22778;SDS011;11556;51.194;3.800;2023-08-17T12:05:28;8.60;;;5.43;;
22778;SDS011;11556;51.194;3.800;2023-08-17T12:07:56;7.18;;;5.28;;
22778;SDS011;11556;51.194;3.800;2023-08-17T12:10:23;9.75;;;5.13;;
22778;SDS011;11556;51.194;3.800;2023-08-17T12:12:52;10.40;;;5.10;;
22778;SDS011;11556;51.194;3.800;2023-08-17T12:15:17;13.00;;;5.88;;
22778;SDS011;11556;51.194;3.800;2023-08-17T12:17:44;8.60;;;5.20;;
22778;SDS011;11556;51.194;3.800;2023-08-17T12:20:15;10.02;;;5.00;;
22778;SDS011;11556;51.194;3.800;2023-08-17T12:22:42;6.32;;;5.13;;
22778;SDS011;11556;51.194;3.800;2023-08-17T12:25:08;9.77;;;4.90;;
22778;SDS011;11556;51.194;3.800;2023-08-17T12:27:35;6.50;;;4.13;;
22778;SDS011;11556;51.194;3.800;2023-08-17T12:30:01;9.40;;;4.93;;
22778;SDS011;11556;51.194;3.800;2023-08-17T12:32:26;11.50;;;5.30;;
22778;SDS011;11556;51.194;3.800;2023-08-17T12:34:52;11.38;;;5.20;;
22778;SDS011;11556;51.194;3.800;2023-08-17T12:37:18;10.48;;;5.20;;
22778;SDS011;11556;51.194;3.800;2023-08-17T12:39:46;7.97;;;5.68;;
22778;SDS011;11556;51.194;3.800;2023-08-17T12:42:12;9.35;;;4.43;;
22778;SDS011;11556;51.194;3.800;2023-08-17T12:44:39;10.35;;;5.45;;
22778;SDS011;11556;51.194;3.800;2023-08-17T12:47:05;8.10;;;5.32;;
22778;SDS011;11556;51.194;3.800;2023-08-17T12:49:31;10.23;;;6.72;;
22778;SDS011;11556;51.194;3.800;2023-08-17T12:51:56;9.80;;;5.90;;
22778;SDS011;11556;51.194;3.800;2023-08-17T12:54:22;6.30;;;5.70;;
22778;SDS011;11556;51.194;3.800;2023-08-17T12:56:48;7.07;;;5.57;;
22778;SDS011;11556;51.194;3.800;2023-08-17T12:59:13;7.15;;;5.32;;
22778;SDS011;11556;51.194;3.800;2023-08-17T13:01:39;6.72;;;5.18;;
22778;SDS011;11556;51.194;3.800;2023-08-17T13:04:05;9.23;;;5.95;;
22778;SDS011;11556;51.194;3.800;2023-08-17T13:06:31;7.13;;;5.68;;
22778;SDS011;11556;51.194;3.800;2023-08-17T13:08:57;9.52;;;6.13;;
22778;SDS011;11556;51.194;3.800;2023-08-17T13:11:22;9.02;;;6.28;;
22778;SDS011;11556;51.194;3.800;2023-08-17T13:13:48;10.88;;;7.93;;
22778;SDS011;11556;51.194;3.800;2023-08-17T13:16:14;9.20;;;7.95;;
22778;SDS011;11556;51.194;3.800;2023-08-17T13:18:39;9.90;;;6.78;;
22778;SDS011;11556;51.194;3.800;2023-08-17T13:21:05;8.23;;;6.53;;
22778;SDS011;11556;51.194;3.800;2023-08-17T13:23:31;8.93;;;6.45;;
22778;SDS011;11556;51.194;3.800;2023-08-17T13:25:57;9.48;;;6.85;;
22778;SDS011;11556;51.194;3.800;2023-08-17T13:28:23;12.35;;;6.70;;
22778;SDS011;11556;51.194;3.800;2023-08-17T13:30:48;10.45;;;7.68;;
22778;SDS011;11556;51.194;3.800;2023-08-17T13:33:15;10.30;;;6.90;;
22778;SDS011;11556;51.194;3.800;2023-08-17T13:35:41;8.80;;;5.50;;
22778;SDS011;11556;51.194;3.800;2023-08-17T13:38:07;8.05;;;5.50;;
22778;SDS011;11556;51.194;3.800;2023-08-17T13:40:33;9.02;;;6.22;;
22778;SDS011;11556;51.194;3.800;2023-08-17T13:42:59;10.80;;;5.80;;
22778;SDS011;11556;51.194;3.800;2023-08-17T13:45:25;8.05;;;6.50;;
22778;SDS011;11556;51.194;3.800;2023-08-17T13:47:51;11.10;;;6.30;;
22778;SDS011;11556;51.194;3.800;2023-08-17T13:50:17;14.20;;;6.65;;
22778;SDS011;11556;51.194;3.800;2023-08-17T13:52:43;10.82;;;5.95;;
22778;SDS011;11556;51.194;3.800;2023-08-17T13:55:09;16.15;;;7.43;;
22778;SDS011;11556;51.194;3.800;2023-08-17T13:57:35;8.80;;;6.93;;
22778;SDS011;11556;51.194;3.800;2023-08-17T14:00:01;10.25;;;6.35;;
22778;SDS011;11556;51.194;3.800;2023-08-17T14:02:29;7.53;;;6.15;;
22778;SDS011;11556;51.194;3.800;2023-08-17T14:04:55;11.27;;;6.63;;
22778;SDS011;11556;51.194;3.800;2023-08-17T14:07:20;11.85;;;7.20;;
22778;SDS011;11556;51.194;3.800;2023-08-17T14:09:46;16.10;;;7.70;;
22778;SDS011;11556;51.194;3.800;2023-08-17T14:12:12;11.35;;;6.82;;
22778;SDS011;11556;51.194;3.800;2023-08-17T14:14:37;10.48;;;7.30;;
22778;SDS011;11556;51.194;3.800;2023-08-17T14:17:03;9.07;;;6.80;;
22778;SDS011;11556;51.194;3.800;2023-08-17T14:19:29;9.98;;;7.47;;
22778;SDS011;11556;51.194;3.800;2023-08-17T14:21:55;12.70;;;7.18;;
22778;SDS011;11556;51.194;3.800;2023-08-17T14:24:21;8.98;;;7.05;;
22778;SDS011;11556;51.194;3.800;2023-08-17T14:26:47;8.75;;;7.28;;
22778;SDS011;11556;51.194;3.800;2023-08-17T14:29:12;9.40;;;7.03;;
22778;SDS011;11556;51.194;3.800;2023-08-17T14:31:38;10.52;;;7.80;;
22778;SDS011;11556;51.194;3.800;2023-08-17T14:34:04;9.88;;;7.57;;
22778;SDS011;11556;51.194;3.800;2023-08-17T14:36:29;10.07;;;7.65;;
22778;SDS011;11556;51.194;3.800;2023-08-17T14:38:55;13.93;;;9.00;;
22778;SDS011;11556;51.194;3.800;2023-08-17T14:41:21;10.13;;;7.88;;
22778;SDS011;11556;51.194;3.800;2023-08-17T14:43:46;12.63;;;7.88;;
22778;SDS011;11556;51.194;3.800;2023-08-17T14:46:12;10.80;;;8.15;;
22778;SDS011;11556;51.194;3.800;2023-08-17T14:48:38;13.95;;;8.65;;
22778;SDS011;11556;51.194;3.800;2023-08-17T14:51:03;12.40;;;8.60;;
22778;SDS011;11556;51.194;3.800;2023-08-17T14:53:30;12.68;;;8.23;;
22778;SDS011;11556;51.194;3.800;2023-08-17T14:55:56;14.27;;;8.95;;
22778;SDS011;11556;51.194;3.800;2023-08-17T14:58:21;15.70;;;9.30;;
22778;SDS011;11556;51.194;3.800;2023-08-17T15:00:47;12.68;;;8.90;;
22778;SDS011;11556;51.194;3.800;2023-08-17T15:03:13;17.05;;;10.35;;